Maurilandia do Tocantins, Brazil
Current Conditions -  °F | °C
As of 4:15 AM on Friday 19 Dec 2014 (Local Time) from SBIZ Reporting Station
Broken Clouds Broken Clouds  
Wind Chill: 77°   Ceiling: 3000
Heat Index: 78°   Visibility: 4mi
Dew Point: 75°   Wind: 3mph
Humidity: 94%   Direction: 110°ESE
Pressure: 29.8"   Gusts: NA
Location:  5.95°S, 47.51°W
Report Text: SBIZ 190715Z 11003KT 7000 BKN030 25/24 Q1009
Loading
Personal Weather Stations






























Interactive Weather Map New forecast layout! Learn more

10-Day Weather Forecast

Advertisements
Track Severe Weather on mobile